createdAt,value
2019-04-25T00:00:05.846Z,20.30
2019-04-25T00:02:35.063Z,20.40
2019-04-25T00:05:03.256Z,20.90
2019-04-25T00:07:32.746Z,20.30
2019-04-25T00:10:01.588Z,20.30
2019-04-25T00:12:29.342Z,20.30
2019-04-25T00:14:56.916Z,20.30
2019-04-25T00:17:25.360Z,20.40
2019-04-25T00:19:52.980Z,20.40
2019-04-25T00:22:28.190Z,20.30
2019-04-25T00:25:12.889Z,20.30
2019-04-25T00:27:29.396Z,20.30
2019-04-25T00:29:56.946Z,20.40
2019-04-25T00:32:24.566Z,20.30
2019-04-25T00:34:52.806Z,20.40
2019-04-25T00:37:22.410Z,20.30
2019-04-25T00:39:49.778Z,20.30
2019-04-25T00:42:17.369Z,20.30
2019-04-25T00:44:45.901Z,20.30
2019-04-25T00:47:13.678Z,20.40
2019-04-25T00:49:43.058Z,20.30
2019-04-25T00:52:11.583Z,20.30
2019-04-25T00:54:39.445Z,20.30
2019-04-25T00:57:07.020Z,20.40
2019-04-25T00:59:38.932Z,20.30
2019-04-25T01:02:26.459Z,20.30
2019-04-25T01:04:54.224Z,20.30
2019-04-25T01:07:22.399Z,20.30
2019-04-25T01:09:50.117Z,20.30
2019-04-25T01:12:17.843Z,20.30
2019-04-25T01:14:45.689Z,20.40
2019-04-25T01:17:14.233Z,20.30
2019-04-25T01:19:41.796Z,20.40
2019-04-25T01:22:09.405Z,20.30
2019-04-25T01:24:36.992Z,20.40
2019-04-25T01:27:05.568Z,20.90
2019-04-25T01:29:33.506Z,20.30
2019-04-25T01:32:01.162Z,20.30
2019-04-25T01:34:34.270Z,20.40
2019-04-25T01:37:04.174Z,20.90
2019-04-25T01:39:45.571Z,20.30
2019-04-25T01:42:14.791Z,20.40
2019-04-25T01:44:50.206Z,20.30
2019-04-25T01:47:18.060Z,20.30
2019-04-25T01:49:45.691Z,20.30
2019-04-25T01:52:13.700Z,20.30
2019-04-25T01:54:41.445Z,20.40
2019-04-25T01:57:09.466Z,20.30
2019-04-25T01:59:37.133Z,20.30
2019-04-25T02:02:06.709Z,20.30
2019-04-25T02:04:34.484Z,20.30
2019-04-25T02:07:03.623Z,20.30
2019-04-25T02:09:31.392Z,20.30
2019-04-25T02:12:04.812Z,20.30
2019-04-25T02:14:33.627Z,20.30
2019-04-25T02:17:02.302Z,20.30
2019-04-25T02:19:30.498Z,20.30
2019-04-25T02:21:58.201Z,20.30
2019-04-25T02:24:25.778Z,20.30
2019-04-25T02:26:55.236Z,20.40
2019-04-25T02:29:23.508Z,20.30
2019-04-25T02:31:51.251Z,20.30
2019-04-25T02:34:18.949Z,20.40
2019-04-25T02:36:47.032Z,20.30
2019-04-25T02:39:16.769Z,20.30
2019-04-25T02:41:44.572Z,20.30
2019-04-25T02:44:14.433Z,20.30
2019-04-25T02:47:00.968Z,20.40
2019-04-25T02:49:38.901Z,20.40
2019-04-25T02:52:13.063Z,20.30
2019-04-25T02:54:40.135Z,20.30
2019-04-25T02:57:08.336Z,20.50
2019-04-25T02:59:37.125Z,20.40
2019-04-25T03:02:07.106Z,20.30
2019-04-25T03:04:34.683Z,20.30
2019-04-25T03:07:06.636Z,20.30
2019-04-25T03:09:31.684Z,20.40
2019-04-25T03:11:59.922Z,20.40
2019-04-25T03:14:27.625Z,20.30
2019-04-25T03:16:55.474Z,20.60
2019-04-25T03:19:34.324Z,20.60
2019-04-25T03:22:11.655Z,21.00
2019-04-25T03:24:38.764Z,20.40
2019-04-25T03:27:07.340Z,20.70
2019-04-25T03:29:34.965Z,20.60
2019-04-25T03:32:07.252Z,20.30
2019-04-25T03:34:34.921Z,20.50
2019-04-25T03:37:01.855Z,20.30
2019-04-25T03:39:29.975Z,20.40
2019-04-25T03:41:57.585Z,20.90
2019-04-25T03:44:25.336Z,20.40
2019-04-25T03:46:53.481Z,20.80
2019-04-25T03:49:21.301Z,20.50
2019-04-25T03:51:48.884Z,20.60
2019-04-25T03:54:16.435Z,20.40
2019-04-25T03:56:51.999Z,20.40
2019-04-25T03:59:14.686Z,20.40
2019-04-25T04:01:43.933Z,20.40
2019-04-25T04:04:13.746Z,20.40
2019-04-25T04:06:41.242Z,20.50
2019-04-25T04:09:09.739Z,20.70
2019-04-25T04:11:37.467Z,20.30
2019-04-25T04:14:06.185Z,20.00
2019-04-25T04:16:35.987Z,20.80
2019-04-25T04:19:04.940Z,20.50
2019-04-25T04:21:34.827Z,20.70
2019-04-25T04:24:04.116Z,20.70
2019-04-25T04:26:33.171Z,20.70
2019-04-25T04:29:00.941Z,20.70
2019-04-25T04:31:28.485Z,20.50
2019-04-25T04:33:56.079Z,20.40
2019-04-25T04:36:23.838Z,20.50
2019-04-25T04:38:51.468Z,20.50
2019-04-25T04:41:19.191Z,20.80
2019-04-25T04:43:46.731Z,20.70
2019-04-25T04:46:17.121Z,20.80
2019-04-25T04:48:43.887Z,20.70
2019-04-25T04:51:13.037Z,20.80
2019-04-25T04:53:40.878Z,21.00
2019-04-25T04:56:08.925Z,20.90
2019-04-25T04:58:39.295Z,20.60
2019-04-25T05:01:06.942Z,21.00
2019-04-25T05:03:45.062Z,21.20
2019-04-25T05:06:30.861Z,21.00
2019-04-25T05:09:05.807Z,21.00
2019-04-25T05:11:33.565Z,20.80
2019-04-25T05:14:01.226Z,20.80
2019-04-25T05:16:28.817Z,21.00
2019-04-25T05:18:56.369Z,20.80
2019-04-25T05:21:25.205Z,20.80
2019-04-25T05:23:54.296Z,20.60
2019-04-25T05:26:22.038Z,21.10
2019-04-25T05:28:49.602Z,21.40
2019-04-25T05:31:19.275Z,21.60
2019-04-25T05:33:46.922Z,21.60
2019-04-25T05:36:15.484Z,21.70
2019-04-25T05:38:45.128Z,21.80
2019-04-25T05:41:29.588Z,21.90
2019-04-25T05:43:57.156Z,21.90
2019-04-25T05:46:25.430Z,21.90
2019-04-25T05:48:53.954Z,21.90
2019-04-25T05:51:21.641Z,22.30
2019-04-25T05:53:49.284Z,22.20
2019-04-25T05:56:16.865Z,22.30
2019-04-25T05:58:44.446Z,22.40
2019-04-25T06:01:13.387Z,22.70
2019-04-25T06:03:41.120Z,22.40
2019-04-25T06:06:08.671Z,22.40
2019-04-25T06:08:39.064Z,22.20
2019-04-25T06:11:11.230Z,22.10
2019-04-25T06:13:43.448Z,21.60
2019-04-25T06:16:13.386Z,22.10
2019-04-25T06:18:48.690Z,22.10
2019-04-25T06:21:16.272Z,22.70
2019-04-25T06:23:45.990Z,23.40
2019-04-25T06:26:22.817Z,23.20
2019-04-25T06:28:52.474Z,23.10
2019-04-25T06:31:14.116Z,22.90
2019-04-25T06:33:43.245Z,23.00
2019-04-25T06:36:11.048Z,22.80
2019-04-25T06:38:38.656Z,23.10
2019-04-25T06:41:06.230Z,22.90
2019-04-25T06:43:34.711Z,22.80
2019-04-25T06:46:21.113Z,22.90
2019-04-25T06:48:56.283Z,23.10
2019-04-25T06:51:26.751Z,22.90
2019-04-25T06:53:54.587Z,22.90
2019-04-25T06:56:24.050Z,22.90
2019-04-25T06:58:51.488Z,22.80
2019-04-25T07:01:19.130Z,22.80
2019-04-25T07:03:46.740Z,22.90
2019-04-25T07:06:14.724Z,22.80
2019-04-25T07:08:43.009Z,22.60
2019-04-25T07:11:11.896Z,22.50
2019-04-25T07:13:39.467Z,22.40
2019-04-25T07:16:07.015Z,21.80
2019-04-25T07:18:37.060Z,22.60
2019-04-25T07:21:03.899Z,22.70
2019-04-25T07:23:32.845Z,22.60
2019-04-25T07:26:03.739Z,22.40
2019-04-25T07:28:39.030Z,22.20
2019-04-25T07:31:08.277Z,22.10
2019-04-25T07:33:54.062Z,22.00
2019-04-25T07:36:23.203Z,20.40
2019-04-25T07:39:04.969Z,20.30
2019-04-25T07:41:20.228Z,20.20
2019-04-25T07:43:47.830Z,20.20
2019-04-25T07:46:15.387Z,20.20
2019-04-25T07:48:43.832Z,20.20
2019-04-25T07:51:14.728Z,20.20
2019-04-25T07:53:40.943Z,20.20
2019-04-25T07:56:08.509Z,19.60
2019-04-25T07:58:50.526Z,19.10
2019-04-25T08:01:11.374Z,19.20
2019-04-25T08:03:38.958Z,19.40
2019-04-25T08:06:06.504Z,18.90
2019-04-25T08:08:34.961Z,18.60
2019-04-25T08:11:04.992Z,18.40
2019-04-25T08:13:53.380Z,17.70
2019-04-25T08:16:23.332Z,17.30
2019-04-25T08:18:51.051Z,17.00
2019-04-25T08:21:18.713Z,17.10
2019-04-25T08:23:46.929Z,17.40
2019-04-25T08:26:14.491Z,17.70
2019-04-25T08:28:54.038Z,18.20
2019-04-25T08:31:11.398Z,17.80
2019-04-25T08:33:39.120Z,17.60
2019-04-25T08:36:09.306Z,17.60
2019-04-25T08:38:36.157Z,17.30
2019-04-25T08:41:04.079Z,16.80
2019-04-25T08:43:32.562Z,16.40
2019-04-25T08:46:01.219Z,15.60
2019-04-25T08:48:31.308Z,16.10
2019-04-25T08:51:03.741Z,15.50
2019-04-25T08:53:35.157Z,15.50
2019-04-25T08:56:06.673Z,15.60
2019-04-25T08:58:36.554Z,15.50
2019-04-25T09:01:14.959Z,15.50
2019-04-25T09:03:44.394Z,15.60
2019-04-25T09:06:13.344Z,15.60
2019-04-25T09:08:41.097Z,15.60
2019-04-25T09:11:08.810Z,16.80
2019-04-25T09:13:37.395Z,17.20
2019-04-25T09:16:05.688Z,17.20
2019-04-25T09:18:34.975Z,17.40
2019-04-25T09:21:03.961Z,17.90
2019-04-25T09:23:31.609Z,17.80
2019-04-25T09:25:59.209Z,18.10
2019-04-25T09:28:26.788Z,18.10
2019-04-25T09:30:54.366Z,18.10
2019-04-25T09:33:23.240Z,18.00
2019-04-25T09:35:50.897Z,18.10
2019-04-25T09:38:18.508Z,18.20
2019-04-25T09:40:46.682Z,18.10
2019-04-25T09:43:14.521Z,18.10
2019-04-25T09:45:49.664Z,18.20
2019-04-25T09:48:24.799Z,18.10
2019-04-25T09:50:54.012Z,18.20
2019-04-25T09:53:24.315Z,18.20
2019-04-25T09:55:54.208Z,18.30
2019-04-25T09:58:29.288Z,18.30
2019-04-25T10:00:58.499Z,18.40
2019-04-25T10:03:26.104Z,18.20
2019-04-25T10:05:53.669Z,18.20
2019-04-25T10:08:21.408Z,18.20
2019-04-25T10:10:49.023Z,18.50
2019-04-25T10:13:16.669Z,18.40
2019-04-25T10:15:48.818Z,18.30
2019-04-25T10:18:16.491Z,18.40
2019-04-25T10:20:45.163Z,18.50
2019-04-25T10:23:15.570Z,18.70
2019-04-25T10:25:44.150Z,18.50
2019-04-25T10:28:13.266Z,18.50
2019-04-25T10:30:41.102Z,18.60
2019-04-25T10:33:08.717Z,18.70
2019-04-25T10:35:46.649Z,18.70
2019-04-25T10:38:05.769Z,19.30
2019-04-25T10:40:33.846Z,18.80
2019-04-25T10:43:01.555Z,18.80
2019-04-25T10:45:29.159Z,18.90
2019-04-25T10:47:56.739Z,18.90
2019-04-25T10:50:24.382Z,19.10
2019-04-25T10:52:52.740Z,19.00
2019-04-25T10:55:21.361Z,19.00
2019-04-25T10:57:48.969Z,19.10
2019-04-25T11:00:19.820Z,19.10
2019-04-25T11:02:47.509Z,19.10
2019-04-25T11:05:16.418Z,19.20
2019-04-25T11:07:44.499Z,19.10
2019-04-25T11:10:13.957Z,19.20
2019-04-25T11:12:45.385Z,19.20
2019-04-25T11:15:14.333Z,19.30
2019-04-25T11:17:45.168Z,19.30
2019-04-25T11:20:14.398Z,19.40
2019-04-25T11:22:43.943Z,19.40
2019-04-25T11:25:11.479Z,19.30
2019-04-25T11:27:39.061Z,19.40
2019-04-25T11:30:11.290Z,19.40
2019-04-25T11:32:37.526Z,19.40
2019-04-25T11:35:05.719Z,19.50
2019-04-25T11:37:34.294Z,19.50
2019-04-25T11:40:06.751Z,19.40
2019-04-25T11:42:34.330Z,19.40
2019-04-25T11:45:03.039Z,19.40
2019-04-25T11:47:31.424Z,19.50
2019-04-25T11:49:59.003Z,19.50
2019-04-25T11:52:28.374Z,19.50
2019-04-25T11:54:55.918Z,19.60
2019-04-25T11:57:23.470Z,19.60
2019-04-25T11:59:51.064Z,19.60
2019-04-25T12:02:19.090Z,19.50
2019-04-25T12:04:47.787Z,20.10
2019-04-25T12:07:15.884Z,19.50
2019-04-25T12:09:45.801Z,19.60
2019-04-25T12:12:14.623Z,19.60
2019-04-25T12:14:44.165Z,19.60
2019-04-25T12:17:11.428Z,19.60
2019-04-25T12:19:39.010Z,20.10
2019-04-25T12:22:06.683Z,19.30
2019-04-25T12:24:34.248Z,19.50
2019-04-25T12:27:02.012Z,19.40
2019-04-25T12:29:29.601Z,19.50
2019-04-25T12:31:57.185Z,19.50
2019-04-25T12:34:24.758Z,19.50
2019-04-25T12:36:54.302Z,19.50
2019-04-25T12:39:24.143Z,19.50
2019-04-25T12:41:51.951Z,19.60
2019-04-25T12:44:23.994Z,19.50
2019-04-25T12:46:54.580Z,19.60
2019-04-25T12:49:24.205Z,19.50
2019-04-25T12:51:52.685Z,19.60
2019-04-25T12:54:20.405Z,19.50
2019-04-25T12:56:49.207Z,19.60
2019-04-25T12:59:16.846Z,19.60
2019-04-25T13:01:44.517Z,19.60
2019-04-25T13:04:12.088Z,19.60
2019-04-25T13:06:39.699Z,19.60
2019-04-25T13:09:07.254Z,20.10
2019-04-25T13:11:34.915Z,19.60
2019-04-25T13:14:02.572Z,19.70
2019-04-25T13:16:30.181Z,19.60
2019-04-25T13:19:09.327Z,19.70
2019-04-25T13:21:27.092Z,19.60
2019-04-25T13:23:54.666Z,19.70
2019-04-25T13:26:24.922Z,19.60
2019-04-25T13:29:01.075Z,19.70
2019-04-25T13:31:36.121Z,19.80
2019-04-25T13:34:05.900Z,19.70
2019-04-25T13:36:34.711Z,19.60
2019-04-25T13:39:04.364Z,19.60
2019-04-25T13:41:32.617Z,19.70
2019-04-25T13:44:00.950Z,19.70
2019-04-25T13:46:28.664Z,19.60
2019-04-25T13:48:56.342Z,19.60
2019-04-25T13:51:24.644Z,19.50
2019-04-25T13:53:52.373Z,20.10
2019-04-25T13:56:20.023Z,19.70
2019-04-25T13:58:47.569Z,19.50
2019-04-25T14:01:17.478Z,19.60
2019-04-25T14:03:45.297Z,19.50
2019-04-25T14:06:13.642Z,19.60
2019-04-25T14:08:41.351Z,20.00
2019-04-25T14:11:09.165Z,20.70
2019-04-25T14:13:36.775Z,20.70
2019-04-25T14:16:14.819Z,20.70
2019-04-25T14:18:49.795Z,20.70
2019-04-25T14:21:19.017Z,20.70
2019-04-25T14:23:46.573Z,20.70
2019-04-25T14:26:14.260Z,20.70
2019-04-25T14:28:41.818Z,20.70
2019-04-25T14:31:11.041Z,20.70
2019-04-25T14:33:38.664Z,20.70
2019-04-25T14:36:06.337Z,20.70
2019-04-25T14:38:35.379Z,20.70
2019-04-25T14:41:03.468Z,20.60
2019-04-25T14:43:31.156Z,20.20
2019-04-25T14:45:59.186Z,20.20
2019-04-25T14:48:27.212Z,19.60
2019-04-25T14:50:54.937Z,20.00
2019-04-25T14:53:24.149Z,19.80
2019-04-25T14:55:53.509Z,19.70
2019-04-25T14:58:22.887Z,19.80
2019-04-25T15:00:51.625Z,19.80
2019-04-25T15:03:19.229Z,19.90
2019-04-25T15:05:46.801Z,20.10
2019-04-25T15:08:14.441Z,20.30
2019-04-25T15:10:42.061Z,20.00
2019-04-25T15:13:09.823Z,19.90
2019-04-25T15:15:37.399Z,19.70
2019-04-25T15:18:04.981Z,19.50
2019-04-25T15:20:32.551Z,19.50
2019-04-25T15:23:00.152Z,19.50
2019-04-25T15:25:27.707Z,19.30
2019-04-25T15:27:55.310Z,19.20
2019-04-25T15:30:30.630Z,18.80
2019-04-25T15:32:58.237Z,18.30
2019-04-25T15:35:35.257Z,18.50
2019-04-25T15:38:10.297Z,18.70
2019-04-25T15:40:41.125Z,18.50
2019-04-25T15:43:16.670Z,18.30
2019-04-25T15:45:45.879Z,18.10
2019-04-25T15:48:13.473Z,18.00
2019-04-25T15:50:41.613Z,18.20
2019-04-25T15:53:09.203Z,17.80
2019-04-25T15:55:36.804Z,18.40
2019-04-25T15:58:04.372Z,18.00
2019-04-25T16:00:33.592Z,17.90
2019-04-25T16:03:01.144Z,18.40
2019-04-25T16:05:28.823Z,18.40
2019-04-25T16:07:56.500Z,18.70
2019-04-25T16:10:24.100Z,18.60
2019-04-25T16:12:51.707Z,17.90
2019-04-25T16:15:19.309Z,17.60
2019-04-25T16:17:46.882Z,18.10
2019-04-25T16:20:14.577Z,17.80
2019-04-25T16:22:42.125Z,18.60
2019-04-25T16:25:09.727Z,18.70
2019-04-25T16:27:37.300Z,18.50
2019-04-25T16:30:08.292Z,18.50
2019-04-25T16:32:36.684Z,18.60
2019-04-25T16:35:05.226Z,18.80
2019-04-25T16:37:33.286Z,18.60
2019-04-25T16:40:00.836Z,18.90
2019-04-25T16:42:30.246Z,18.80
2019-04-25T16:44:58.044Z,18.90
2019-04-25T16:47:27.292Z,19.00
2019-04-25T16:49:54.876Z,19.10
2019-04-25T16:52:23.658Z,19.10
2019-04-25T16:54:51.343Z,19.20
2019-04-25T16:57:19.125Z,19.20
2019-04-25T16:59:46.704Z,19.40
2019-04-25T17:02:14.628Z,19.50
2019-04-25T17:04:42.233Z,19.70
2019-04-25T17:07:09.996Z,19.50
2019-04-25T17:09:38.484Z,19.50
2019-04-25T17:12:07.713Z,19.60
2019-04-25T17:14:55.316Z,19.50
2019-04-25T17:17:27.340Z,19.60
2019-04-25T17:20:05.388Z,19.70
2019-04-25T17:22:32.954Z,19.80
2019-04-25T17:25:00.555Z,20.80
2019-04-25T17:27:28.386Z,20.70
2019-04-25T17:29:56.236Z,20.80
2019-04-25T17:32:50.333Z,20.70
2019-04-25T17:35:15.868Z,20.70
2019-04-25T17:37:47.760Z,20.00
2019-04-25T17:40:16.998Z,19.10
2019-04-25T17:42:44.609Z,17.20
2019-04-25T17:45:13.836Z,19.20
2019-04-25T17:47:52.350Z,19.50
2019-04-25T17:50:10.844Z,20.50
2019-04-25T17:52:38.432Z,20.80
2019-04-25T17:55:06.184Z,20.80
2019-04-25T17:57:33.784Z,20.80
2019-04-25T18:00:01.440Z,21.50
2019-04-25T18:02:29.030Z,22.10
2019-04-25T18:04:56.617Z,22.00
2019-04-25T18:07:24.202Z,21.60
2019-04-25T18:09:51.756Z,20.80
2019-04-25T18:12:19.519Z,20.70
2019-04-25T18:14:47.267Z,18.30
2019-04-25T18:17:15.111Z,19.10
2019-04-25T18:19:50.329Z,20.30
2019-04-25T18:22:19.515Z,20.80
2019-04-25T18:25:03.862Z,20.80
2019-04-25T18:27:49.369Z,20.80
2019-04-25T18:30:19.054Z,20.80
2019-04-25T18:32:48.265Z,21.40
2019-04-25T18:35:17.487Z,21.30
2019-04-25T18:37:55.789Z,21.30
2019-04-25T18:40:30.654Z,21.90
2019-04-25T18:43:02.786Z,22.00
2019-04-25T18:45:32.012Z,22.00
2019-04-25T18:47:59.586Z,21.80
2019-04-25T18:50:29.098Z,21.90
2019-04-25T18:53:01.026Z,21.60
2019-04-25T18:55:39.314Z,21.80
2019-04-25T18:58:14.531Z,21.70
2019-04-25T19:01:00.065Z,22.30
2019-04-25T19:03:32.155Z,22.20
2019-04-25T19:06:01.772Z,22.10
2019-04-25T19:08:29.518Z,21.90
2019-04-25T19:10:57.088Z,22.00
2019-04-25T19:13:24.768Z,21.60
2019-04-25T19:15:52.416Z,21.60
2019-04-25T19:18:20.028Z,21.80
2019-04-25T19:20:48.112Z,22.20
2019-04-25T19:23:15.947Z,21.70
2019-04-25T19:25:43.770Z,21.50
2019-04-25T19:28:11.488Z,21.60
2019-04-25T19:30:39.816Z,21.60
2019-04-25T19:33:08.429Z,21.80
2019-04-25T19:35:36.040Z,21.80
2019-04-25T19:38:03.658Z,21.90
2019-04-25T19:40:32.924Z,21.70
2019-04-25T19:43:16.145Z,21.70
2019-04-25T19:45:44.789Z,20.80
2019-04-25T19:48:12.537Z,20.80
2019-04-25T19:50:40.697Z,21.50
2019-04-25T19:53:09.292Z,20.90
2019-04-25T19:55:36.875Z,21.40
2019-04-25T19:58:04.878Z,20.80
2019-04-25T20:00:32.469Z,20.80
2019-04-25T20:03:04.617Z,20.80
2019-04-25T20:05:39.865Z,20.80
2019-04-25T20:08:09.079Z,20.80
2019-04-25T20:10:47.525Z,20.80
2019-04-25T20:13:15.101Z,20.80
2019-04-25T20:15:44.066Z,20.70
2019-04-25T20:18:11.871Z,20.80
2019-04-25T20:20:39.479Z,20.80
2019-04-25T20:23:07.051Z,20.80
2019-04-25T20:25:34.675Z,20.70
2019-04-25T20:28:02.833Z,20.70
2019-04-25T20:30:30.696Z,21.40
2019-04-25T20:32:58.712Z,20.70
2019-04-25T20:35:26.435Z,20.70
2019-04-25T20:37:54.103Z,21.40
2019-04-25T20:40:21.685Z,20.70
2019-04-25T20:42:50.127Z,20.70
2019-04-25T20:45:18.301Z,20.70
2019-04-25T20:47:46.574Z,20.50
2019-04-25T20:50:14.459Z,20.50
2019-04-25T20:52:42.111Z,20.40
2019-04-25T20:55:09.719Z,18.20
2019-04-25T20:57:37.405Z,19.40
2019-04-25T21:00:05.831Z,19.30
2019-04-25T21:02:33.514Z,19.60
2019-04-25T21:05:01.283Z,18.80
2019-04-25T21:07:28.899Z,19.20
2019-04-25T21:09:56.497Z,19.50
2019-04-25T21:12:24.165Z,18.90
2019-04-25T21:14:56.339Z,18.70
2019-04-25T21:17:37.761Z,18.20
2019-04-25T21:20:07.257Z,17.80
2019-04-25T21:22:35.010Z,18.60
2019-04-25T21:25:05.465Z,17.80
2019-04-25T21:27:32.021Z,18.70
2019-04-25T21:29:59.800Z,18.20
2019-04-25T21:32:29.273Z,18.00
2019-04-25T21:34:57.125Z,18.20
2019-04-25T21:37:25.706Z,17.60
2019-04-25T21:39:58.492Z,17.50
2019-04-25T21:42:31.912Z,18.50
2019-04-25T21:45:00.447Z,18.50
2019-04-25T21:47:28.632Z,19.50
2019-04-25T21:49:56.566Z,19.20
2019-04-25T21:52:24.526Z,19.90
2019-04-25T21:54:53.108Z,18.40
2019-04-25T21:57:21.160Z,19.40
2019-04-25T21:59:59.021Z,19.20
2019-04-25T22:02:19.242Z,19.80
2019-04-25T22:04:47.165Z,17.90
2019-04-25T22:07:15.092Z,16.50
2019-04-25T22:09:42.972Z,17.60
2019-04-25T22:12:11.588Z,18.70
2019-04-25T22:14:39.151Z,19.30
2019-04-25T22:17:07.587Z,19.80
2019-04-25T22:19:35.579Z,22.00
2019-04-25T22:22:03.446Z,22.50
2019-04-25T22:24:31.040Z,23.80
2019-04-25T22:27:00.895Z,23.90
2019-04-25T22:29:28.543Z,23.80
2019-04-25T22:32:15.823Z,23.90
2019-04-25T22:34:52.257Z,23.90
2019-04-25T22:37:14.887Z,23.90
2019-04-25T22:39:42.799Z,23.90
2019-04-25T22:42:10.441Z,24.20
2019-04-25T22:44:39.139Z,24.60
2019-04-25T22:47:06.980Z,24.90
2019-04-25T22:49:34.558Z,25.30
2019-04-25T22:52:03.097Z,24.70
2019-04-25T22:54:31.850Z,24.00
2019-04-25T22:57:00.079Z,24.10
2019-04-25T22:59:28.835Z,24.30
2019-04-25T23:02:14.401Z,24.30
2019-04-25T23:05:04.598Z,24.50
2019-04-25T23:07:22.082Z,24.30
2019-04-25T23:09:50.984Z,23.80
2019-04-25T23:12:19.008Z,24.00
2019-04-25T23:14:47.669Z,23.80
2019-04-25T23:17:15.185Z,24.00
2019-04-25T23:19:43.051Z,23.80
2019-04-25T23:22:11.462Z,23.40
2019-04-25T23:24:40.933Z,23.20
2019-04-25T23:27:14.160Z,23.20
2019-04-25T23:29:41.956Z,23.10
2019-04-25T23:32:10.430Z,23.00
2019-04-25T23:34:38.177Z,23.00
2019-04-25T23:37:06.231Z,23.00
2019-04-25T23:39:34.986Z,22.80
2019-04-25T23:42:02.629Z,22.80
2019-04-25T23:44:30.169Z,22.70
2019-04-25T23:46:58.068Z,23.30
2019-04-25T23:49:26.033Z,22.60
2019-04-25T23:51:53.935Z,22.70
2019-04-25T23:54:21.574Z,22.60
2019-04-25T23:56:49.146Z,22.60
2019-04-25T23:59:17.728Z,22.60
